sensor_id;sensor_type;location;lat;lon;timestamp;pressure;altitude;pressure_sealevel;temperature;humidity
79690;BME280;69156;55.932;-3.238;2023-07-31T00:01:23;99474.18;;;16.51;63.33
79690;BME280;69156;55.932;-3.238;2023-07-31T00:03:49;99469.75;;;16.46;63.13
79690;BME280;69156;55.932;-3.238;2023-07-31T00:06:14;99465.55;;;16.75;62.49
79690;BME280;69156;55.932;-3.238;2023-07-31T00:08:38;99466.32;;;16.78;62.52
79690;BME280;69156;55.932;-3.238;2023-07-31T00:11:04;99469.74;;;16.67;62.50
79690;BME280;69156;55.932;-3.238;2023-07-31T00:13:30;99468.30;;;16.61;62.40
79690;BME280;69156;55.932;-3.238;2023-07-31T00:15:56;99462.88;;;16.61;62.25
79690;BME280;69156;55.932;-3.238;2023-07-31T00:18:21;99462.59;;;16.56;62.63
79690;BME280;69156;55.932;-3.238;2023-07-31T00:20:47;99454.46;;;16.68;62.55
79690;BME280;69156;55.932;-3.238;2023-07-31T00:23:13;99449.53;;;16.65;62.58
79690;BME280;69156;55.932;-3.238;2023-07-31T00:25:39;99450.70;;;16.60;62.69
79690;BME280;69156;55.932;-3.238;2023-07-31T00:28:04;99447.49;;;16.58;62.97
79690;BME280;69156;55.932;-3.238;2023-07-31T00:30:30;99447.43;;;16.55;63.13
79690;BME280;69156;55.932;-3.238;2023-07-31T00:32:55;99444.08;;;16.56;63.01
79690;BME280;69156;55.932;-3.238;2023-07-31T00:35:20;99433.05;;;16.51;63.32
79690;BME280;69156;55.932;-3.238;2023-07-31T00:37:45;99427.74;;;16.56;62.96
79690;BME280;69156;55.932;-3.238;2023-07-31T00:40:11;99428.50;;;16.38;63.93
79690;BME280;69156;55.932;-3.238;2023-07-31T00:42:35;99423.41;;;16.50;63.81
79690;BME280;69156;55.932;-3.238;2023-07-31T00:45:01;99424.27;;;16.48;64.20
79690;BME280;69156;55.932;-3.238;2023-07-31T00:47:26;99419.76;;;16.61;64.05
79690;BME280;69156;55.932;-3.238;2023-07-31T00:49:51;99417.27;;;16.54;63.74
79690;BME280;69156;55.932;-3.238;2023-07-31T00:52:17;99415.73;;;16.42;63.99
79690;BME280;69156;55.932;-3.238;2023-07-31T00:54:42;99418.45;;;16.63;63.55
79690;BME280;69156;55.932;-3.238;2023-07-31T00:57:08;99415.73;;;16.62;63.79
79690;BME280;69156;55.932;-3.238;2023-07-31T00:59:35;99413.29;;;16.46;63.69
79690;BME280;69156;55.932;-3.238;2023-07-31T01:02:00;99411.78;;;16.50;63.73
79690;BME280;69156;55.932;-3.238;2023-07-31T01:04:26;99407.95;;;16.67;63.79
79690;BME280;69156;55.932;-3.238;2023-07-31T01:06:58;99406.62;;;16.50;64.41
79690;BME280;69156;55.932;-3.238;2023-07-31T01:09:22;99406.30;;;16.24;65.66
79690;BME280;69156;55.932;-3.238;2023-07-31T01:11:46;99401.15;;;16.17;66.21
79690;BME280;69156;55.932;-3.238;2023-07-31T01:14:08;99400.44;;;16.17;66.85
79690;BME280;69156;55.932;-3.238;2023-07-31T01:16:33;99399.54;;;16.14;67.67
79690;BME280;69156;55.932;-3.238;2023-07-31T01:18:59;99394.12;;;16.08;68.20
79690;BME280;69156;55.932;-3.238;2023-07-31T01:21:41;99390.93;;;16.03;68.70
79690;BME280;69156;55.932;-3.238;2023-07-31T01:24:02;99387.59;;;16.03;68.94
79690;BME280;69156;55.932;-3.238;2023-07-31T01:26:19;99384.70;;;16.09;68.88
79690;BME280;69156;55.932;-3.238;2023-07-31T01:28:47;99381.85;;;15.89;69.11
79690;BME280;69156;55.932;-3.238;2023-07-31T01:31:08;99378.33;;;15.87;69.05
79690;BME280;69156;55.932;-3.238;2023-07-31T01:33:33;99376.40;;;15.81;68.96
79690;BME280;69156;55.932;-3.238;2023-07-31T01:35:58;99375.11;;;15.78;69.49
79690;BME280;69156;55.932;-3.238;2023-07-31T01:38:23;99372.08;;;15.85;69.40
79690;BME280;69156;55.932;-3.238;2023-07-31T01:40:52;99367.92;;;15.84;69.81
79690;BME280;69156;55.932;-3.238;2023-07-31T01:43:15;99363.84;;;15.76;69.65
79690;BME280;69156;55.932;-3.238;2023-07-31T01:45:40;99360.87;;;15.76;69.76
79690;BME280;69156;55.932;-3.238;2023-07-31T01:48:05;99359.28;;;15.86;70.23
79690;BME280;69156;55.932;-3.238;2023-07-31T01:50:30;99357.99;;;15.96;69.54
79690;BME280;69156;55.932;-3.238;2023-07-31T01:52:56;99352.03;;;16.13;68.75
79690;BME280;69156;55.932;-3.238;2023-07-31T01:55:21;99352.22;;;16.19;68.97
79690;BME280;69156;55.932;-3.238;2023-07-31T01:57:47;99352.70;;;16.08;69.53
79690;BME280;69156;55.932;-3.238;2023-07-31T02:00:12;99354.96;;;15.91;69.91
79690;BME280;69156;55.932;-3.238;2023-07-31T02:02:37;99351.39;;;15.91;70.03
79690;BME280;69156;55.932;-3.238;2023-07-31T02:05:04;99347.41;;;15.94;70.31
79690;BME280;69156;55.932;-3.238;2023-07-31T02:07:29;99345.58;;;16.02;70.69
79690;BME280;69156;55.932;-3.238;2023-07-31T02:09:55;99343.42;;;15.79;71.08
79690;BME280;69156;55.932;-3.238;2023-07-31T02:12:20;99342.04;;;15.82;71.56
79690;BME280;69156;55.932;-3.238;2023-07-31T02:14:45;99339.47;;;15.78;71.69
79690;BME280;69156;55.932;-3.238;2023-07-31T02:17:10;99337.21;;;15.74;71.61
79690;BME280;69156;55.932;-3.238;2023-07-31T02:19:36;99336.63;;;15.75;71.47
79690;BME280;69156;55.932;-3.238;2023-07-31T02:22:01;99335.28;;;15.69;71.48
79690;BME280;69156;55.932;-3.238;2023-07-31T02:24:28;99335.30;;;15.73;71.45
79690;BME280;69156;55.932;-3.238;2023-07-31T02:26:52;99335.17;;;15.79;71.85
79690;BME280;69156;55.932;-3.238;2023-07-31T02:29:17;99333.09;;;15.71;71.69
79690;BME280;69156;55.932;-3.238;2023-07-31T02:31:43;99332.88;;;15.70;71.93
79690;BME280;69156;55.932;-3.238;2023-07-31T02:34:09;99331.61;;;15.77;72.14
79690;BME280;69156;55.932;-3.238;2023-07-31T02:36:34;99328.01;;;15.60;71.89
79690;BME280;69156;55.932;-3.238;2023-07-31T02:39:00;99324.64;;;15.70;71.70
79690;BME280;69156;55.932;-3.238;2023-07-31T02:41:26;99320.11;;;15.51;71.87
79690;BME280;69156;55.932;-3.238;2023-07-31T02:43:52;99317.14;;;15.50;72.06
79690;BME280;69156;55.932;-3.238;2023-07-31T02:46:19;99313.26;;;15.60;71.67
79690;BME280;69156;55.932;-3.238;2023-07-31T02:48:44;99313.30;;;15.62;71.80
79690;BME280;69156;55.932;-3.238;2023-07-31T02:51:09;99317.80;;;15.61;72.09
79690;BME280;69156;55.932;-3.238;2023-07-31T02:53:34;99317.36;;;15.57;72.01
79690;BME280;69156;55.932;-3.238;2023-07-31T02:55:59;99311.21;;;15.54;71.95
79690;BME280;69156;55.932;-3.238;2023-07-31T02:58:25;99308.79;;;15.55;71.72
79690;BME280;69156;55.932;-3.238;2023-07-31T03:00:50;99309.92;;;15.59;71.78
79690;BME280;69156;55.932;-3.238;2023-07-31T03:03:16;99306.98;;;15.49;71.75
79690;BME280;69156;55.932;-3.238;2023-07-31T03:05:41;99311.39;;;15.62;71.84
79690;BME280;69156;55.932;-3.238;2023-07-31T03:08:06;99308.46;;;15.52;71.97
79690;BME280;69156;55.932;-3.238;2023-07-31T03:10:31;99303.06;;;15.55;72.19
79690;BME280;69156;55.932;-3.238;2023-07-31T03:12:57;99298.54;;;15.48;72.10
79690;BME280;69156;55.932;-3.238;2023-07-31T03:15:23;99298.97;;;15.50;72.26
79690;BME280;69156;55.932;-3.238;2023-07-31T03:17:49;99296.68;;;15.40;72.32
79690;BME280;69156;55.932;-3.238;2023-07-31T03:20:15;99299.74;;;15.40;72.20
79690;BME280;69156;55.932;-3.238;2023-07-31T03:22:40;99297.16;;;15.43;72.42
79690;BME280;69156;55.932;-3.238;2023-07-31T03:25:06;99297.57;;;15.52;72.29
79690;BME280;69156;55.932;-3.238;2023-07-31T03:27:30;99301.12;;;15.53;72.23
79690;BME280;69156;55.932;-3.238;2023-07-31T03:29:56;99301.91;;;15.47;72.14
79690;BME280;69156;55.932;-3.238;2023-07-31T03:32:21;99303.93;;;15.51;72.33
79690;BME280;69156;55.932;-3.238;2023-07-31T03:34:47;99300.76;;;15.51;72.43
79690;BME280;69156;55.932;-3.238;2023-07-31T03:37:12;99293.80;;;15.55;72.51
79690;BME280;69156;55.932;-3.238;2023-07-31T03:39:38;99281.78;;;15.49;72.85
79690;BME280;69156;55.932;-3.238;2023-07-31T03:42:04;99275.33;;;15.44;73.03
79690;BME280;69156;55.932;-3.238;2023-07-31T03:44:28;99275.67;;;15.31;73.04
79690;BME280;69156;55.932;-3.238;2023-07-31T03:46:54;99277.96;;;15.35;73.06
79690;BME280;69156;55.932;-3.238;2023-07-31T03:49:19;99278.14;;;15.35;73.04
79690;BME280;69156;55.932;-3.238;2023-07-31T03:51:44;99275.56;;;15.31;73.03
79690;BME280;69156;55.932;-3.238;2023-07-31T03:54:10;99270.30;;;15.32;73.24
79690;BME280;69156;55.932;-3.238;2023-07-31T03:56:35;99269.75;;;15.18;73.50
79690;BME280;69156;55.932;-3.238;2023-07-31T03:59:01;99272.15;;;15.25;73.56
79690;BME280;69156;55.932;-3.238;2023-07-31T04:01:26;99273.53;;;15.24;73.36
79690;BME280;69156;55.932;-3.238;2023-07-31T04:03:51;99273.69;;;15.28;73.12
79690;BME280;69156;55.932;-3.238;2023-07-31T04:06:17;99269.21;;;15.30;72.87
79690;BME280;69156;55.932;-3.238;2023-07-31T04:08:42;99263.59;;;15.25;72.97
79690;BME280;69156;55.932;-3.238;2023-07-31T04:11:08;99261.14;;;15.24;73.04
79690;BME280;69156;55.932;-3.238;2023-07-31T04:13:33;99256.77;;;15.34;73.08
79690;BME280;69156;55.932;-3.238;2023-07-31T04:15:59;99254.65;;;15.29;72.78
79690;BME280;69156;55.932;-3.238;2023-07-31T04:18:25;99254.84;;;15.26;72.68
79690;BME280;69156;55.932;-3.238;2023-07-31T04:20:50;99254.15;;;15.26;72.77
79690;BME280;69156;55.932;-3.238;2023-07-31T04:23:16;99252.08;;;15.28;72.67
79690;BME280;69156;55.932;-3.238;2023-07-31T04:25:41;99245.69;;;15.28;72.85
79690;BME280;69156;55.932;-3.238;2023-07-31T04:28:07;99246.64;;;15.28;72.93
79690;BME280;69156;55.932;-3.238;2023-07-31T04:30:32;99248.86;;;15.27;72.78
79690;BME280;69156;55.932;-3.238;2023-07-31T04:32:58;99251.09;;;15.15;72.72
79690;BME280;69156;55.932;-3.238;2023-07-31T04:35:24;99253.31;;;15.28;72.84
79690;BME280;69156;55.932;-3.238;2023-07-31T04:37:49;99249.36;;;15.14;72.92
79690;BME280;69156;55.932;-3.238;2023-07-31T04:40:14;99248.52;;;15.04;73.12
79690;BME280;69156;55.932;-3.238;2023-07-31T04:42:39;99242.96;;;15.11;73.19
79690;BME280;69156;55.932;-3.238;2023-07-31T04:45:07;99240.67;;;15.17;73.34
79690;BME280;69156;55.932;-3.238;2023-07-31T04:47:31;99243.94;;;15.11;73.33
79690;BME280;69156;55.932;-3.238;2023-07-31T04:49:57;99246.77;;;15.16;73.24
79690;BME280;69156;55.932;-3.238;2023-07-31T04:52:22;99249.59;;;15.18;73.30
79690;BME280;69156;55.932;-3.238;2023-07-31T04:54:48;99249.95;;;15.24;73.19
79690;BME280;69156;55.932;-3.238;2023-07-31T04:57:14;99249.10;;;15.24;73.11
79690;BME280;69156;55.932;-3.238;2023-07-31T04:59:39;99248.76;;;15.28;73.02
79690;BME280;69156;55.932;-3.238;2023-07-31T05:02:07;99240.77;;;15.22;72.94
79690;BME280;69156;55.932;-3.238;2023-07-31T05:04:30;99238.89;;;15.32;72.93
79690;BME280;69156;55.932;-3.238;2023-07-31T05:06:56;99232.30;;;15.31;72.81
79690;BME280;69156;55.932;-3.238;2023-07-31T05:09:21;99227.77;;;15.28;72.82
79690;BME280;69156;55.932;-3.238;2023-07-31T05:11:47;99225.72;;;15.30;72.78
79690;BME280;69156;55.932;-3.238;2023-07-31T05:14:13;99228.24;;;15.40;72.69
79690;BME280;69156;55.932;-3.238;2023-07-31T05:16:40;99232.06;;;15.32;72.56
79690;BME280;69156;55.932;-3.238;2023-07-31T05:19:04;99234.13;;;15.51;72.43
79690;BME280;69156;55.932;-3.238;2023-07-31T05:21:30;99238.51;;;15.48;72.38
79690;BME280;69156;55.932;-3.238;2023-07-31T05:23:55;99237.70;;;15.43;72.11
79690;BME280;69156;55.932;-3.238;2023-07-31T05:26:20;99235.64;;;15.43;72.48
79690;BME280;69156;55.932;-3.238;2023-07-31T05:28:48;99232.33;;;15.58;72.50
79690;BME280;69156;55.932;-3.238;2023-07-31T05:31:13;99229.95;;;15.47;72.48
79690;BME280;69156;55.932;-3.238;2023-07-31T05:33:39;99231.44;;;15.61;72.36
79690;BME280;69156;55.932;-3.238;2023-07-31T05:36:04;99230.94;;;15.61;72.43
79690;BME280;69156;55.932;-3.238;2023-07-31T05:38:29;99227.97;;;15.57;72.55
79690;BME280;69156;55.932;-3.238;2023-07-31T05:40:54;99227.25;;;15.57;72.49
79690;BME280;69156;55.932;-3.238;2023-07-31T05:43:21;99220.43;;;15.58;72.93
79690;BME280;69156;55.932;-3.238;2023-07-31T05:45:45;99219.58;;;15.64;72.62
79690;BME280;69156;55.932;-3.238;2023-07-31T05:48:10;99217.93;;;15.68;72.41
79690;BME280;69156;55.932;-3.238;2023-07-31T05:50:39;99212.23;;;15.67;72.29
79690;BME280;69156;55.932;-3.238;2023-07-31T05:53:02;99215.27;;;15.67;72.30
79690;BME280;69156;55.932;-3.238;2023-07-31T05:55:28;99211.89;;;15.60;72.49
79690;BME280;69156;55.932;-3.238;2023-07-31T05:57:54;99207.50;;;15.71;72.73
79690;BME280;69156;55.932;-3.238;2023-07-31T06:00:21;99200.52;;;15.66;73.05
79690;BME280;69156;55.932;-3.238;2023-07-31T06:02:47;99199.26;;;15.62;73.31
79690;BME280;69156;55.932;-3.238;2023-07-31T06:05:10;99195.65;;;15.61;73.48
79690;BME280;69156;55.932;-3.238;2023-07-31T06:07:45;99201.08;;;15.76;73.81
79690;BME280;69156;55.932;-3.238;2023-07-31T06:10:14;99204.02;;;15.40;74.01
79690;BME280;69156;55.932;-3.238;2023-07-31T06:12:31;99200.36;;;15.60;74.33
79690;BME280;69156;55.932;-3.238;2023-07-31T06:14:56;99194.96;;;15.44;74.58
79690;BME280;69156;55.932;-3.238;2023-07-31T06:17:22;99193.85;;;15.37;74.82
79690;BME280;69156;55.932;-3.238;2023-07-31T06:19:47;99195.15;;;15.50;74.80
79690;BME280;69156;55.932;-3.238;2023-07-31T06:22:12;99193.28;;;15.37;74.68
79690;BME280;69156;55.932;-3.238;2023-07-31T06:24:38;99192.55;;;15.42;74.74
79690;BME280;69156;55.932;-3.238;2023-07-31T06:27:04;99192.83;;;15.43;74.74
79690;BME280;69156;55.932;-3.238;2023-07-31T06:29:29;99190.17;;;15.55;74.74
79690;BME280;69156;55.932;-3.238;2023-07-31T06:31:55;99187.51;;;15.62;74.49
79690;BME280;69156;55.932;-3.238;2023-07-31T06:34:20;99182.81;;;15.58;74.77
79690;BME280;69156;55.932;-3.238;2023-07-31T06:36:46;99180.82;;;15.60;74.62
79690;BME280;69156;55.932;-3.238;2023-07-31T06:39:35;99174.01;;;15.86;74.47
79690;BME280;69156;55.932;-3.238;2023-07-31T06:42:01;99170.05;;;15.64;74.74
79690;BME280;69156;55.932;-3.238;2023-07-31T06:44:26;99168.29;;;15.74;74.65
79690;BME280;69156;55.932;-3.238;2023-07-31T06:47:02;99167.06;;;15.69;74.62
79690;BME280;69156;55.932;-3.238;2023-07-31T06:49:19;99163.70;;;15.71;74.72
79690;BME280;69156;55.932;-3.238;2023-07-31T17:15:14;98855.89;;;17.33;72.39
79690;BME280;69156;55.932;-3.238;2023-07-31T17:17:41;98855.58;;;17.30;72.18
79690;BME280;69156;55.932;-3.238;2023-07-31T17:20:11;98855.08;;;17.18;72.15
79690;BME280;69156;55.932;-3.238;2023-07-31T17:22:37;98850.90;;;17.29;72.23
79690;BME280;69156;55.932;-3.238;2023-07-31T17:25:06;98850.53;;;17.15;71.96
79690;BME280;69156;55.932;-3.238;2023-07-31T17:27:32;98847.89;;;17.20;71.78
79690;BME280;69156;55.932;-3.238;2023-07-31T17:30:00;98848.50;;;17.16;71.69
79690;BME280;69156;55.932;-3.238;2023-07-31T17:32:20;98849.17;;;17.21;72.01
79690;BME280;69156;55.932;-3.238;2023-07-31T17:34:46;98850.38;;;17.10;71.78
79690;BME280;69156;55.932;-3.238;2023-07-31T17:37:11;98849.64;;;17.03;72.18
79690;BME280;69156;55.932;-3.238;2023-07-31T17:39:36;98847.70;;;17.17;71.80
79690;BME280;69156;55.932;-3.238;2023-07-31T17:42:02;98847.13;;;16.96;71.75
79690;BME280;69156;55.932;-3.238;2023-07-31T17:44:28;98845.01;;;17.18;71.82
79690;BME280;69156;55.932;-3.238;2023-07-31T17:46:53;98840.35;;;17.01;71.24
79690;BME280;69156;55.932;-3.238;2023-07-31T17:49:18;98838.64;;;17.18;71.31
79690;BME280;69156;55.932;-3.238;2023-07-31T17:51:43;98837.92;;;17.08;71.14
79690;BME280;69156;55.932;-3.238;2023-07-31T17:54:09;98835.35;;;17.20;70.70
79690;BME280;69156;55.932;-3.238;2023-07-31T17:56:35;98834.54;;;17.06;70.78
79690;BME280;69156;55.932;-3.238;2023-07-31T17:59:01;98834.66;;;17.09;70.83
79690;BME280;69156;55.932;-3.238;2023-07-31T18:01:34;98836.77;;;17.20;70.99
79690;BME280;69156;55.932;-3.238;2023-07-31T18:04:01;98836.30;;;17.23;71.11
79690;BME280;69156;55.932;-3.238;2023-07-31T18:06:29;98834.45;;;17.10;70.63
79690;BME280;69156;55.932;-3.238;2023-07-31T18:08:57;98828.65;;;17.07;70.79
79690;BME280;69156;55.932;-3.238;2023-07-31T18:11:25;98832.94;;;17.00;70.66
79690;BME280;69156;55.932;-3.238;2023-07-31T18:13:53;98832.42;;;17.10;70.57
79690;BME280;69156;55.932;-3.238;2023-07-31T18:16:21;98834.31;;;17.00;70.65
79690;BME280;69156;55.932;-3.238;2023-07-31T18:18:48;98831.79;;;16.93;70.41
79690;BME280;69156;55.932;-3.238;2023-07-31T18:21:15;98831.94;;;16.94;70.36
79690;BME280;69156;55.932;-3.238;2023-07-31T18:23:42;98827.74;;;17.04;70.59
79690;BME280;69156;55.932;-3.238;2023-07-31T18:26:11;98833.43;;;17.00;70.37
79690;BME280;69156;55.932;-3.238;2023-07-31T18:28:38;98833.83;;;16.99;70.37
79690;BME280;69156;55.932;-3.238;2023-07-31T18:31:07;98838.52;;;17.02;69.81
79690;BME280;69156;55.932;-3.238;2023-07-31T18:33:34;98839.64;;;17.01;69.84
79690;BME280;69156;55.932;-3.238;2023-07-31T18:36:05;98837.96;;;17.08;69.98
79690;BME280;69156;55.932;-3.238;2023-07-31T18:38:28;98844.71;;;17.11;69.69
79690;BME280;69156;55.932;-3.238;2023-07-31T18:40:57;98844.71;;;17.31;69.62
79690;BME280;69156;55.932;-3.238;2023-07-31T18:43:23;98847.49;;;17.23;69.45
79690;BME280;69156;55.932;-3.238;2023-07-31T18:45:51;98846.14;;;17.10;69.44
79690;BME280;69156;55.932;-3.238;2023-07-31T18:48:18;98849.17;;;17.23;69.47
79690;BME280;69156;55.932;-3.238;2023-07-31T18:50:46;98849.37;;;17.21;69.61
79690;BME280;69156;55.932;-3.238;2023-07-31T18:53:14;98844.17;;;17.16;69.15
79690;BME280;69156;55.932;-3.238;2023-07-31T18:55:42;98845.14;;;17.14;69.42
79690;BME280;69156;55.932;-3.238;2023-07-31T18:58:09;98845.70;;;17.07;69.05
79690;BME280;69156;55.932;-3.238;2023-07-31T19:00:36;98848.31;;;17.17;68.96
79690;BME280;69156;55.932;-3.238;2023-07-31T19:03:03;98850.55;;;17.09;68.97
79690;BME280;69156;55.932;-3.238;2023-07-31T19:05:32;98850.05;;;17.01;68.73
79690;BME280;69156;55.932;-3.238;2023-07-31T19:07:59;98853.14;;;17.00;68.86
79690;BME280;69156;55.932;-3.238;2023-07-31T19:10:27;98854.89;;;16.96;68.93
79690;BME280;69156;55.932;-3.238;2023-07-31T19:12:55;98853.15;;;16.99;69.03
79690;BME280;69156;55.932;-3.238;2023-07-31T19:15:23;98852.83;;;16.87;68.96
79690;BME280;69156;55.932;-3.238;2023-07-31T19:17:48;98849.77;;;16.94;68.95
79690;BME280;69156;55.932;-3.238;2023-07-31T19:20:16;98848.04;;;16.89;68.86
79690;BME280;69156;55.932;-3.238;2023-07-31T19:22:44;98847.12;;;16.92;68.82
79690;BME280;69156;55.932;-3.238;2023-07-31T19:25:12;98850.18;;;16.83;69.00
79690;BME280;69156;55.932;-3.238;2023-07-31T19:27:40;98856.01;;;16.76;68.94
79690;BME280;69156;55.932;-3.238;2023-07-31T19:30:10;98855.48;;;16.97;68.91
79690;BME280;69156;55.932;-3.238;2023-07-31T19:32:38;98853.95;;;17.04;68.80
79690;BME280;69156;55.932;-3.238;2023-07-31T19:35:14;98851.23;;;16.88;68.76
79690;BME280;69156;55.932;-3.238;2023-07-31T19:37:38;98854.89;;;16.88;68.56
79690;BME280;69156;55.932;-3.238;2023-07-31T19:40:01;98859.30;;;16.81;69.00
79690;BME280;69156;55.932;-3.238;2023-07-31T19:42:32;98859.42;;;16.70;68.80
79690;BME280;69156;55.932;-3.238;2023-07-31T19:44:59;98860.11;;;16.68;68.82
79690;BME280;69156;55.932;-3.238;2023-07-31T19:47:26;98863.32;;;16.84;68.70
79690;BME280;69156;55.932;-3.238;2023-07-31T19:49:53;98865.13;;;16.89;68.62
79690;BME280;69156;55.932;-3.238;2023-07-31T19:52:21;98861.36;;;16.73;68.53
79690;BME280;69156;55.932;-3.238;2023-07-31T19:54:49;98864.23;;;16.69;68.90
79690;BME280;69156;55.932;-3.238;2023-07-31T19:57:14;98861.60;;;16.65;69.02
79690;BME280;69156;55.932;-3.238;2023-07-31T19:59:42;98860.97;;;16.68;69.30
79690;BME280;69156;55.932;-3.238;2023-07-31T20:02:11;98861.46;;;16.67;69.08
79690;BME280;69156;55.932;-3.238;2023-07-31T20:04:38;98864.07;;;16.75;69.03
79690;BME280;69156;55.932;-3.238;2023-07-31T20:07:06;98864.84;;;16.66;69.36
79690;BME280;69156;55.932;-3.238;2023-07-31T20:09:34;98868.87;;;16.62;69.22
79690;BME280;69156;55.932;-3.238;2023-07-31T20:12:02;98871.76;;;16.65;69.11
79690;BME280;69156;55.932;-3.238;2023-07-31T20:14:30;98874.07;;;16.68;69.21
79690;BME280;69156;55.932;-3.238;2023-07-31T20:16:57;98875.81;;;16.68;68.99
79690;BME280;69156;55.932;-3.238;2023-07-31T20:19:25;98874.58;;;16.85;68.66
79690;BME280;69156;55.932;-3.238;2023-07-31T20:21:54;98875.38;;;16.93;68.51
79690;BME280;69156;55.932;-3.238;2023-07-31T20:24:21;98875.25;;;16.79;68.66
79690;BME280;69156;55.932;-3.238;2023-07-31T20:26:47;98879.06;;;16.78;68.88
79690;BME280;69156;55.932;-3.238;2023-07-31T20:29:15;98877.96;;;16.63;69.12
79690;BME280;69156;55.932;-3.238;2023-07-31T20:31:44;98877.99;;;16.61;69.43
79690;BME280;69156;55.932;-3.238;2023-07-31T20:34:11;98875.49;;;16.76;69.14
79690;BME280;69156;55.932;-3.238;2023-07-31T20:36:39;98876.87;;;16.61;69.26
79690;BME280;69156;55.932;-3.238;2023-07-31T20:39:08;98875.45;;;16.47;69.68
79690;BME280;69156;55.932;-3.238;2023-07-31T20:41:36;98877.64;;;16.50;69.83
79690;BME280;69156;55.932;-3.238;2023-07-31T20:44:04;98878.39;;;16.66;69.95
79690;BME280;69156;55.932;-3.238;2023-07-31T20:46:32;98881.36;;;16.52;69.63
79690;BME280;69156;55.932;-3.238;2023-07-31T20:49:00;98879.64;;;16.44;69.94
79690;BME280;69156;55.932;-3.238;2023-07-31T20:51:29;98882.27;;;16.46;70.19
79690;BME280;69156;55.932;-3.238;2023-07-31T20:53:56;98884.35;;;16.50;70.01
79690;BME280;69156;55.932;-3.238;2023-07-31T20:56:24;98885.50;;;16.47;70.03
79690;BME280;69156;55.932;-3.238;2023-07-31T20:58:51;98883.98;;;16.55;69.69
79690;BME280;69156;55.932;-3.238;2023-07-31T21:01:17;98886.10;;;16.62;69.33
79690;BME280;69156;55.932;-3.238;2023-07-31T21:03:45;98884.20;;;16.54;69.63
79690;BME280;69156;55.932;-3.238;2023-07-31T21:06:13;98880.46;;;16.51;70.28
79690;BME280;69156;55.932;-3.238;2023-07-31T21:08:41;98877.69;;;16.45;70.81
79690;BME280;69156;55.932;-3.238;2023-07-31T21:11:08;98876.42;;;16.24;71.62
79690;BME280;69156;55.932;-3.238;2023-07-31T21:13:35;98872.13;;;16.24;71.76
79690;BME280;69156;55.932;-3.238;2023-07-31T21:16:02;98869.52;;;16.25;71.90
79690;BME280;69156;55.932;-3.238;2023-07-31T21:18:29;98867.62;;;16.11;72.08
79690;BME280;69156;55.932;-3.238;2023-07-31T21:20:57;98866.69;;;16.21;72.46
79690;BME280;69156;55.932;-3.238;2023-07-31T21:23:25;98862.22;;;16.04;72.40
79690;BME280;69156;55.932;-3.238;2023-07-31T21:25:53;98862.51;;;16.11;72.53
79690;BME280;69156;55.932;-3.238;2023-07-31T21:28:20;98864.87;;;15.99;72.96
79690;BME280;69156;55.932;-3.238;2023-07-31T21:30:48;98858.94;;;16.15;73.06
79690;BME280;69156;55.932;-3.238;2023-07-31T21:33:14;98853.63;;;16.03;73.08
79690;BME280;69156;55.932;-3.238;2023-07-31T21:35:42;98848.98;;;16.29;72.81
79690;BME280;69156;55.932;-3.238;2023-07-31T21:38:10;98848.85;;;16.31;72.77
79690;BME280;69156;55.932;-3.238;2023-07-31T21:40:37;98848.57;;;16.09;72.71
79690;BME280;69156;55.932;-3.238;2023-07-31T21:43:06;98849.69;;;16.16;72.93
79690;BME280;69156;55.932;-3.238;2023-07-31T21:45:32;98849.68;;;15.92;72.95
79690;BME280;69156;55.932;-3.238;2023-07-31T21:47:58;98849.05;;;16.09;73.11
79690;BME280;69156;55.932;-3.238;2023-07-31T21:50:26;98847.15;;;15.84;73.15
79690;BME280;69156;55.932;-3.238;2023-07-31T21:52:54;98845.72;;;15.87;73.09
79690;BME280;69156;55.932;-3.238;2023-07-31T21:55:21;98847.90;;;15.92;73.03
79690;BME280;69156;55.932;-3.238;2023-07-31T21:57:48;98848.53;;;15.63;73.13
79690;BME280;69156;55.932;-3.238;2023-07-31T22:00:15;98849.19;;;15.64;72.93
79690;BME280;69156;55.932;-3.238;2023-07-31T22:02:43;98847.59;;;15.64;73.37
